Terminal Aerodrome Forecast
Issued by NWS Oklahoma City, OK

Home | Current Version | Previous Version | Text Only | Print | Product List | Glossary On
Versions: 1 2 3 4 5 6 7 8 9 10 11 12 13 14 15 16 17 18 19 20 21 22 23
000
FTUS44 KOUN 131124
TAFOUN
TAF
KOUN 131124Z 1312/1412 18007KT P6SM FEW150
     FM131400 23011KT P6SM FEW080
     FM140000 VRB05KT P6SM BKN070
     FM140600 02007KT P6SM BKN060=

USA.gov is the U.S. government's official web portal to all federal, state and local government web resources and services.